AU-0094 weather

Toby's Gap Airstrip
Fraser Island, Queensland, Australia

Public forecast

Using degrees Celsius for public forecast. Weather courtesy of forecast.io.

METAR (pilot weather report)

Closest report is Bundaberg Airport, 57.7 nm (106.9 km) NW. Retrieved 2019/02/16 13:00 UTC (13 minutes ago):

YBUD 161300Z AUTO 17006KT 9999 // NCD 22/17 Q1014

TAF (pilot weather forecast)

Closest forecast is Brisbane International Airport, 107.8 nm (199.7 km) S. Retrieved 2019/02/16 12:00 UTC (1 hour ago):

TAF YBBN 161111Z 1612/1718 19008KT 9999 FEW030 FM162300 14011KT 9999 FEW040 FM170100 11013KT 9999 SCT045 FM170900 13010KT 9999 SCT040 FM171200 19007KT 9999 SCT035